Flight Track Log - Related Links

Times and Time Zones

All times are in EDT time to prevent confusion due to time zone crossing. See the LYM865 flight status page for this flight to view local times or setup timezone preferences in your user account.

Time Position Orientation Groundspeed Altitude Reporting Facility
EDT Latitude Longitude Course Direction KTS MPH feet Rate Location/Type
Sun 06:29:10 PM 46.8019 -102.9031 221° Southwest 173 199 5,400  Level Salt Lake Center
Sun 06:30:12 PM 46.7592 -102.9581 221° Southwest 190 219 7,300 1,500 Climbing Salt Lake Center
Sun 06:31:14 PM 46.7203 -103.0081 223° Southwest 191 220 8,500 1,258 Climbing Salt Lake Center
Sun 06:32:16 PM 46.6733 -103.0728 224° Southwest 191 220 9,900 1,161 Climbing Salt Lake Center
Sun 06:33:18 PM 46.6350 -103.1258 221° Southwest 191 220 10,900 1,016 Climbing Salt Lake Center
Sun 06:34:20 PM 46.5950 -103.1761 222° Southwest 192 221 12,000 1,161 Climbing Salt Lake Center
Sun 06:35:22 PM 46.5550 -103.2278 218° Southwest 192 221 13,300 1,065 Climbing Salt Lake Center
Sun 06:36:24 PM 46.5119 -103.2769 219° Southwest 193 222 14,200 774 Climbing Salt Lake Center
Sun 06:37:26 PM 46.4678 -103.3281 214° Southwest 197 227 14,900 774 Climbing Salt Lake Center
Sun 06:38:28 PM 46.4075 -103.3864 213° Southwest 207 238 15,800 871 Climbing Salt Lake Center
Sun 06:39:30 PM 46.3553 -103.4356 211° Southwest 216 249 16,700 774 Climbing Salt Lake Center
Sun 06:40:32 PM 46.3028 -103.4814 213° Southwest 219 252 17,400 581 Climbing Salt Lake Center
Sun 06:41:34 PM 46.2514 -103.5303 214° Southwest 220 253 17,900 581 Climbing Salt Lake Center
Sun 06:42:36 PM 46.1997 -103.5806 212° Southwest 221 254 18,600 629 Climbing Salt Lake Center
Sun 06:43:38 PM 46.1511 -103.6247 214° Southwest 215 247 19,200 634 Climbing Salt Lake Center
Sun 06:44:39 PM 46.0911 -103.6836 217° Southwest 217 250 19,900 634 Climbing Salt Lake Center
Sun 06:45:41 PM 46.0439 -103.7344 215° Southwest 215 247 20,500 581 Climbing Salt Lake Center
Sun 06:46:43 PM 45.9944 -103.7839 214° Southwest 215 247 21,100 532 Climbing Salt Lake Center
Sun 06:47:45 PM 45.9475 -103.8303 218° Southwest 210 242 21,600 387 Climbing Salt Lake Center
Sun 06:48:47 PM 45.9022 -103.8803 216° Southwest 206 237 21,900 194 Climbing Salt Lake Center
Sun 06:49:49 PM 45.8542 -103.9311 218° Southwest 211 243 22,000 48 Climbing Salt Lake Center
Sun 06:50:51 PM 45.7942 -103.9994 219° Southwest 227 261 22,000  Level Salt Lake Center
Sun 06:51:53 PM 45.7425 -104.0586 218° Southwest 237 273 22,000  Level Salt Lake Center
Sun 06:52:55 PM 45.6897 -104.1169 220° Southwest 240 276 22,000 48 Level Salt Lake Center
Sun 06:53:57 PM 45.6386 -104.1778 217° Southwest 239 275 22,100  Climbing Salt Lake Center
Sun 06:54:58 PM 45.5831 -104.2372 220° Southwest 245 282 22,000  Descending Salt Lake Center
Sun 06:56:00 PM 45.5300 -104.3008 221° Southwest 249 287 22,100 -48 Climbing Salt Lake Center
Sun 06:57:02 PM 45.4783 -104.3644 219° Southwest 247 284 21,900 -48 Descending Salt Lake Center
Sun 06:58:04 PM 45.4139 -104.4378 218° Southwest 247 284 22,000 48 Climbing Salt Lake Center
Sun 06:59:06 PM 45.3608 -104.4969 218° Southwest 246 283 22,000  Level Salt Lake Center
Sun 07:00:07 PM 45.3081 -104.5553 222° Southwest 243 280 22,000  Level Salt Lake Center
Sun 07:01:09 PM 45.2592 -104.6172 220° Southwest 239 275 22,000  Level Salt Lake Center
Sun 07:02:11 PM 45.2033 -104.6847 219° Southwest 241 277 22,000  Level Salt Lake Center
Sun 07:03:13 PM 45.1517 -104.7431 220° Southwest 245 282 22,000  Level Salt Lake Center
Sun 07:04:15 PM 45.0942 -104.8111 220° Southwest 244 281 22,000  Level Salt Lake Center
Sun 07:05:17 PM 45.0444 -104.8700 220° Southwest 243 280 22,000  Level Salt Lake Center
Sun 07:06:19 PM 44.9867 -104.9386 218° Southwest 243 280 22,000  Level Salt Lake Center
Sun 07:07:21 PM 44.9358 -104.9956 220° Southwest 244 281 22,000  Level Salt Lake Center
Sun 07:08:23 PM 44.8783 -105.0628 220° Southwest 242 278 22,000  Level Salt Lake Center
Sun 07:09:07 PM 44.8450 -105.1025 216° Southwest 241 277 22,000  Level Denver Center
Sun 07:10:10 PM 44.7825 -105.1672 218° Southwest 247 284 22,000  Level Denver Center
Sun 07:11:12 PM 44.7294 -105.2258 219° Southwest 246 283 22,000 48 Level Denver Center
Sun 07:12:14 PM 44.6700 -105.2933 217° Southwest 247 284 22,100 48 Climbing Denver Center
Sun 07:13:17 PM 44.6181 -105.3489 217° Southwest 245 282 22,100 -48 Level Denver Center
Sun 07:14:19 PM 44.5586 -105.4122 218° Southwest 247 284 22,000 -96 Descending Denver Center
Sun 07:15:22 PM 44.5069 -105.4692 217° Southwest 246 283 21,900 -48 Descending Denver Center
Sun 07:16:24 PM 44.4431 -105.5356 219° Southwest 250 288 21,900 14 Level Denver Center
Sun 07:22:38 PM 44.1106 -105.9108 216° Southwest 254 292 22,000  Climbing Denver Center
Sun 07:23:41 PM 44.0544 -105.9675 214° Southwest 257 296 21,900  Descending Denver Center
Sun 07:24:43 PM 43.9883 -106.0289 217° Southwest 257 296 22,000 48 Climbing Denver Center
Sun 07:25:45 PM 43.9344 -106.0844 220° Southwest 256 295 22,000  Level Denver Center
Sun 07:26:48 PM 43.8769 -106.1506 218° Southwest 250 288 22,000  Level Denver Center
Sun 07:27:50 PM 43.8244 -106.2072 214° Southwest 249 287 22,000 -48 Level Denver Center
Sun 07:28:52 PM 43.7583 -106.2692 218° Southwest 253 291 21,900 -45 Descending Denver Center
Sun 07:30:04 PM 43.6942 -106.3394 217° Southwest 257 296 21,900  Level Salt Lake Center
Sun 07:31:07 PM 43.6322 -106.4047 217° Southwest 251 289 21,900 48 Level Salt Lake Center
Sun 07:32:09 PM 43.5781 -106.4608 217° Southwest 253 291 22,000 97 Climbing Salt Lake Center
Sun 07:33:11 PM 43.5153 -106.5267 216° Southwest 254 292 22,100 48 Climbing Salt Lake Center
Sun 07:34:13 PM 43.4606 -106.5822 216° Southwest 255 293 22,100  Level Salt Lake Center
Sun 07:35:15 PM 43.3956 -106.6481 212° Southwest 258 297 22,100 -48 Level Salt Lake Center
Sun 07:36:17 PM 43.3372 -106.6983 217° Southwest 259 298 22,000  Descending Salt Lake Center
Sun 07:37:20 PM 43.2731 -106.7650 218° Southwest 259 298 22,100  Climbing Salt Lake Center
Sun 07:38:22 PM 43.2186 -106.8239 213° Southwest 259 298 22,000 -48 Descending Salt Lake Center
Sun 07:39:24 PM 43.1478 -106.8872 215° Southwest 262 302 22,000  Level Salt Lake Center
Sun 07:40:26 PM 43.0914 -106.9422 216° Southwest 261 300 22,000 48 Level Salt Lake Center
Sun 07:41:29 PM 43.0258 -107.0072 213° Southwest 260 299 22,100  Climbing Salt Lake Center
Sun 07:42:31 PM 42.9678 -107.0589 216° Southwest 260 299 22,000 -48 Descending Salt Lake Center
Sun 07:43:33 PM 42.9058 -107.1214 219° Southwest 260 299 22,000 48 Level Salt Lake Center
Sun 07:44:35 PM 42.8525 -107.1806 218° Southwest 259 298 22,100  Climbing Salt Lake Center
Sun 07:45:37 PM 42.7894 -107.2483 215° Southwest 258 297 22,000 -48 Descending Salt Lake Center
Sun 07:46:40 PM 42.7325 -107.3022 214° Southwest 260 299 22,000  Level Salt Lake Center
Sun 07:47:42 PM 42.6658 -107.3636 218° Southwest 260 299 22,000  Level Salt Lake Center
Sun 07:48:44 PM 42.6114 -107.4206 222° Southwest 259 298 22,000  Level Salt Lake Center
Sun 07:49:46 PM 42.5522 -107.4925 222° Southwest 256 295 22,000  Level Salt Lake Center
Sun 07:50:48 PM 42.5019 -107.5531 217° Southwest 254 292 22,000  Level Salt Lake Center
Sun 07:51:50 PM 42.4381 -107.6194 221° Southwest 257 296 22,000  Level Salt Lake Center
Sun 07:52:53 PM 42.3869 -107.6794 220° Southwest 256 295 22,000  Level Salt Lake Center
Sun 07:53:55 PM 42.3264 -107.7489 214° Southwest 255 293 22,000  Level Salt Lake Center
Sun 07:54:57 PM 42.2692 -107.8017 215° Southwest 258 297 22,000  Level Salt Lake Center
Sun 07:55:59 PM 42.2028 -107.8633 216° Southwest 259 298 22,000  Level Salt Lake Center
Sun 07:57:01 PM 42.1467 -107.9192 215° Southwest 260 299 22,000 48 Level Salt Lake Center
Sun 07:58:03 PM 42.0811 -107.9819 216° Southwest 260 299 22,100  Climbing Salt Lake Center
Sun 07:59:05 PM 42.0242 -108.0367 215° Southwest 261 300 22,000 -48 Descending Salt Lake Center
Sun 08:00:07 PM 41.9572 -108.1008 216° Southwest 263 303 22,000  Level Salt Lake Center
Sun 08:01:09 PM 41.9014 -108.1561 212° Southwest 262 302 22,000  Level Salt Lake Center
Sun 08:02:12 PM 41.8292 -108.2156 215° Southwest 268 308 22,000  Level Salt Lake Center
Sun 08:03:14 PM 41.7714 -108.2703 220° Southwest 267 307 22,000  Level Salt Lake Center
Sun 08:04:16 PM 41.7175 -108.3300 217° Southwest 264 304 22,000 48 Level Salt Lake Center
Sun 08:05:18 PM 41.6528 -108.3964 216° Southwest 262 302 22,100  Climbing Salt Lake Center
Sun 08:06:20 PM 41.5961 -108.4522 218° Southwest 263 303 22,000 -48 Descending Salt Lake Center
Sun 08:07:22 PM 41.5308 -108.5197 216° Southwest 264 304 22,000 97 Level Salt Lake Center
Sun 08:08:24 PM 41.4733 -108.5764 219° Southwest 267 307 22,200  Climbing Salt Lake Center
Sun 08:09:26 PM 41.4100 -108.6439 218° Southwest 262 302 22,000 -145 Descending Salt Lake Center
Sun 08:10:28 PM 41.3536 -108.7036 221° Southwest 267 307 21,900 -48 Descending Salt Lake Center
Sun 08:11:30 PM 41.2897 -108.7764 220° Southwest 269 310 21,900 48 Level Salt Lake Center
Sun 08:12:32 PM 41.2342 -108.8386 217° Southwest 270 311 22,000 48 Climbing Salt Lake Center
Sun 08:13:34 PM 41.1689 -108.9031 214° Southwest 264 304 22,000 -387 Level Salt Lake Center
Sun 08:14:36 PM 41.1067 -108.9583 214° Southwest 275 316 21,200 -774 Descending Salt Lake Center
Sun 08:15:38 PM 41.0397 -109.0186 215° Southwest 296 341 20,400 -968 Descending Salt Lake Center
Sun 08:16:40 PM 40.9606 -109.0933 215° Southwest 308 354 19,200 -1,344 Descending Salt Lake Center
Sun 08:17:43 PM 40.8908 -109.1572 215° Southwest 314 361 17,600 -1,728 Descending Salt Lake Center
Sun 08:18:45 PM 40.8172 -109.2244 209° Southwest 301 346 15,600 -1,839 Descending Salt Lake Center
Sun 08:19:47 PM 40.7511 -109.2733 205° Southwest 289 333 13,800 -1,694 Descending Salt Lake Center
Sun 08:20:49 PM 40.6719 -109.3219 205° Southwest 283 326 12,100 -1,645 Descending Salt Lake Center

Login

Don't have an account? Register now (free) for customized features, flight alerts, and more!